createdAt,value
2023-04-02T00:03:46.220Z,20.45
2023-04-02T00:06:34.691Z,28.70
2023-04-02T00:09:13.924Z,30.55
2023-04-02T00:11:43.054Z,21.25
2023-04-02T00:14:29.975Z,26.55
2023-04-02T00:17:00.117Z,27.98
2023-04-02T00:19:43.473Z,26.27
2023-04-02T00:22:22.892Z,30.20
2023-04-02T00:24:55.284Z,31.90
2023-04-02T00:27:23.381Z,26.02
2023-04-02T00:29:56.265Z,24.48
2023-04-02T00:32:35.180Z,29.63
2023-04-02T00:35:03.767Z,27.98
2023-04-02T00:37:39.499Z,27.73
2023-04-02T00:40:21.554Z,26.25
2023-04-02T00:42:54.377Z,33.63
2023-04-02T00:45:28.983Z,22.92
2023-04-02T00:47:58.977Z,24.50
2023-04-02T00:50:46.062Z,19.98
2023-04-02T00:53:25.745Z,18.65
2023-04-02T00:55:53.609Z,25.45
2023-04-02T00:58:32.664Z,22.33
2023-04-02T01:01:00.430Z,20.40
2023-04-02T01:03:35.359Z,20.85
2023-04-02T01:06:11.032Z,22.77
2023-04-02T01:08:59.488Z,22.00
2023-04-02T01:11:54.177Z,27.70
2023-04-02T01:14:40.613Z,18.20
2023-04-02T01:17:43.206Z,21.02
2023-04-02T01:20:19.059Z,20.63
2023-04-02T01:22:55.389Z,26.23
2023-04-02T01:25:49.805Z,24.17
2023-04-02T01:30:54.673Z,23.73
2023-04-02T01:33:31.298Z,22.65
2023-04-02T01:36:09.897Z,22.05
2023-04-02T01:38:46.351Z,15.93
2023-04-02T01:41:33.671Z,20.55
2023-04-02T01:44:15.714Z,14.57
2023-04-02T01:46:43.478Z,13.88
2023-04-02T01:49:18.421Z,14.10
2023-04-02T01:51:51.090Z,18.10
2023-04-02T01:54:20.033Z,16.10
2023-04-02T01:56:48.036Z,17.58
2023-04-02T01:59:22.527Z,14.55
2023-04-02T02:02:06.698Z,20.50
2023-04-02T02:07:02.700Z,16.30
2023-04-02T02:09:33.674Z,16.20
2023-04-02T02:12:03.015Z,15.43
2023-04-02T02:14:31.825Z,14.57
2023-04-02T02:17:04.155Z,14.43
2023-04-02T02:19:39.449Z,15.90
2023-04-02T02:22:28.851Z,15.38
2023-04-02T02:24:58.947Z,14.80
2023-04-02T02:27:26.290Z,13.98
2023-04-02T02:29:58.643Z,10.73
2023-04-02T02:32:30.123Z,11.25
2023-04-02T02:35:05.114Z,14.95
2023-04-02T02:37:37.658Z,17.88
2023-04-02T02:40:12.207Z,17.80
2023-04-02T02:42:47.214Z,20.13
2023-04-02T02:45:18.703Z,22.95
2023-04-02T02:47:46.804Z,17.42
2023-04-02T02:50:26.500Z,20.30
2023-04-02T02:52:56.365Z,22.88
2023-04-02T02:55:34.693Z,19.02
2023-04-02T02:58:07.027Z,18.27
2023-04-02T03:00:36.302Z,24.27
2023-04-02T03:03:08.219Z,24.92
2023-04-02T03:05:36.705Z,26.02
2023-04-02T03:08:07.320Z,22.08
2023-04-02T03:10:43.358Z,22.42
2023-04-02T03:13:35.792Z,19.05
2023-04-02T03:16:32.027Z,12.98
2023-04-02T03:19:17.308Z,18.65
2023-04-02T03:21:57.818Z,13.57
2023-04-02T03:24:27.803Z,19.10
2023-04-02T03:27:02.737Z,17.77
2023-04-02T03:29:33.303Z,17.05
2023-04-02T03:32:12.277Z,13.88
2023-04-02T03:34:45.804Z,18.35
2023-04-02T03:37:33.584Z,15.63
2023-04-02T03:40:04.727Z,14.60
2023-04-02T03:42:44.075Z,13.88
2023-04-02T03:45:23.192Z,13.25
2023-04-02T03:48:29.208Z,14.45
2023-04-02T03:51:05.677Z,11.70
2023-04-02T03:53:33.037Z,16.05
2023-04-02T03:56:01.993Z,13.80
2023-04-02T03:58:42.413Z,21.63
2023-04-02T04:01:32.058Z,23.92
2023-04-02T04:04:09.280Z,24.60
2023-04-02T04:06:37.780Z,24.00
2023-04-02T04:09:22.804Z,27.83
2023-04-02T04:11:54.449Z,16.95
2023-04-02T04:14:32.634Z,20.73
2023-04-02T04:17:30.891Z,23.42
2023-04-02T04:20:22.265Z,14.88
2023-04-02T04:22:56.237Z,18.63
2023-04-02T04:25:34.066Z,17.83
2023-04-02T04:28:11.023Z,39.55
2023-04-02T04:30:51.203Z,22.77
2023-04-02T04:33:23.366Z,25.77
2023-04-02T04:35:56.047Z,20.90
2023-04-02T04:38:55.954Z,18.15
2023-04-02T04:41:44.034Z,23.05
2023-04-02T04:44:38.508Z,24.35
2023-04-02T04:49:57.183Z,22.48
2023-04-02T04:52:37.029Z,18.73
2023-04-02T04:55:22.722Z,26.42
2023-04-02T04:57:51.288Z,19.45
2023-04-02T05:00:50.088Z,21.95
2023-04-02T05:03:33.201Z,20.00
2023-04-02T05:06:35.091Z,20.52
2023-04-02T05:09:11.871Z,20.27
2023-04-02T05:11:46.033Z,14.95
2023-04-02T05:14:35.958Z,19.52
2023-04-02T05:17:15.613Z,15.88
2023-04-02T05:20:16.574Z,15.43
2023-04-02T05:23:19.285Z,15.65
2023-04-02T05:26:09.625Z,14.43
2023-04-02T05:28:47.159Z,15.25
2023-04-02T05:31:22.793Z,17.55
2023-04-02T05:33:50.560Z,18.52
2023-04-02T05:36:24.668Z,15.82
2023-04-02T05:38:53.746Z,22.30
2023-04-02T05:41:33.222Z,19.38
2023-04-02T05:44:28.360Z,24.45
2023-04-02T05:47:05.463Z,24.63
2023-04-02T05:49:52.909Z,18.35
2023-04-02T05:52:28.483Z,21.27
2023-04-02T05:55:13.812Z,31.75
2023-04-02T05:58:10.429Z,27.65
2023-04-02T06:00:39.485Z,15.13
2023-04-02T06:03:46.445Z,13.13
2023-04-02T06:06:23.822Z,15.38
2023-04-02T06:09:01.215Z,15.63
2023-04-02T06:11:37.626Z,15.63
2023-04-02T06:14:05.064Z,16.60
2023-04-02T06:16:34.662Z,21.25
2023-04-02T06:19:01.920Z,18.02
2023-04-02T06:21:28.998Z,18.10
2023-04-02T06:24:01.995Z,20.38
2023-04-02T06:26:40.538Z,18.53
2023-04-02T06:29:13.555Z,19.98
2023-04-02T06:31:57.650Z,16.73
2023-04-02T06:36:57.791Z,22.35
2023-04-02T06:39:26.394Z,16.25
2023-04-02T06:42:23.346Z,14.13
2023-04-02T06:44:51.097Z,13.43
2023-04-02T06:47:27.188Z,13.32
2023-04-02T06:50:15.266Z,14.15
2023-04-02T06:52:50.348Z,16.42
2023-04-02T06:56:10.833Z,14.68
2023-04-02T06:58:38.056Z,12.98
2023-04-02T07:01:05.344Z,15.07
2023-04-02T07:03:33.112Z,20.88
2023-04-02T07:06:03.191Z,26.15
2023-04-02T07:08:30.350Z,22.15
2023-04-02T07:10:57.381Z,24.63
2023-04-02T07:13:25.385Z,21.75
2023-04-02T07:15:55.466Z,19.33
2023-04-02T07:18:30.023Z,18.73
2023-04-02T07:20:57.406Z,22.02
2023-04-02T07:23:26.969Z,21.92
2023-04-02T07:25:55.894Z,22.70
2023-04-02T07:28:23.460Z,22.60
2023-04-02T07:30:51.644Z,18.63
2023-04-02T07:33:22.413Z,21.70
2023-04-02T07:35:50.746Z,24.13
2023-04-02T07:38:17.825Z,15.27
2023-04-02T07:40:45.043Z,14.10
2023-04-02T07:43:12.086Z,17.95
2023-04-02T07:45:39.392Z,15.20
2023-04-02T07:48:14.168Z,13.73
2023-04-02T07:50:41.452Z,20.08
2023-04-02T07:53:09.109Z,22.45
2023-04-02T07:55:36.575Z,26.55
2023-04-02T07:58:04.494Z,22.95
2023-04-02T08:00:32.514Z,22.80
2023-04-02T08:02:59.664Z,20.85
2023-04-02T08:05:28.140Z,30.00
2023-04-02T08:07:56.412Z,18.05
2023-04-02T08:10:24.482Z,21.60
2023-04-02T08:12:51.767Z,22.85
2023-04-02T08:15:19.549Z,26.10
2023-04-02T08:17:48.185Z,27.00
2023-04-02T08:20:20.598Z,25.77
2023-04-02T08:22:48.985Z,24.50
2023-04-02T08:25:17.132Z,30.33
2023-04-02T08:27:47.883Z,21.08
2023-04-02T08:30:17.758Z,26.70
2023-04-02T08:32:44.932Z,30.52
2023-04-02T08:35:15.085Z,26.10
2023-04-02T08:37:43.120Z,28.40
2023-04-02T08:40:23.449Z,26.52
2023-04-02T08:43:24.534Z,28.42
2023-04-02T08:46:01.190Z,28.88
2023-04-02T08:48:31.525Z,25.83
2023-04-02T08:51:00.089Z,27.63
2023-04-02T08:53:34.236Z,30.17
2023-04-02T08:56:40.935Z,28.52
2023-04-02T08:59:25.355Z,27.33
2023-04-02T09:02:22.211Z,26.42
2023-04-02T09:04:50.191Z,29.10
2023-04-02T09:07:18.328Z,31.98
2023-04-02T09:09:49.250Z,32.13
2023-04-02T09:12:21.843Z,35.25
2023-04-02T09:15:12.196Z,43.65
2023-04-02T09:17:50.519Z,35.53
2023-04-02T09:20:24.541Z,35.25
2023-04-02T09:22:54.009Z,38.17
2023-04-02T09:25:27.358Z,31.38
2023-04-02T09:27:57.472Z,31.70
2023-04-02T09:30:29.813Z,38.42
2023-04-02T09:33:03.123Z,44.63
2023-04-02T09:35:32.912Z,46.50
2023-04-02T09:38:20.252Z,39.38
2023-04-02T09:41:03.975Z,37.72
2023-04-02T09:43:33.906Z,34.20
2023-04-02T09:46:04.472Z,40.35
2023-04-02T09:48:33.919Z,48.40
2023-04-02T09:51:13.205Z,31.15
2023-04-02T09:53:46.515Z,38.38
2023-04-02T09:56:21.877Z,39.80
2023-04-02T09:59:13.753Z,32.55
2023-04-02T10:01:44.474Z,38.58
2023-04-02T10:04:30.122Z,39.20
2023-04-02T10:06:59.314Z,42.17
2023-04-02T10:09:31.050Z,26.63
2023-04-02T10:11:59.984Z,35.25
2023-04-02T10:14:53.957Z,33.55
2023-04-02T10:17:28.632Z,28.48
2023-04-02T10:20:06.766Z,29.58
2023-04-02T10:22:33.987Z,31.05
2023-04-02T10:25:01.749Z,38.05
2023-04-02T10:27:59.891Z,38.97
2023-04-02T10:30:39.509Z,26.60
2023-04-02T10:33:12.742Z,26.80
2023-04-02T10:35:48.557Z,38.25
2023-04-02T10:38:39.028Z,39.05
2023-04-02T10:41:24.359Z,40.13
2023-04-02T10:44:20.099Z,37.80
2023-04-02T10:46:55.658Z,37.25
2023-04-02T10:49:30.861Z,33.92
2023-04-02T10:52:29.744Z,41.72
2023-04-02T10:55:02.495Z,35.60
2023-04-02T10:57:39.458Z,32.72
2023-04-02T11:00:13.251Z,40.03
2023-04-02T11:02:46.553Z,36.08
2023-04-02T11:05:40.990Z,33.92
2023-04-02T11:11:08.358Z,46.00
2023-04-02T11:14:13.272Z,44.67
2023-04-02T11:16:43.932Z,66.45
2023-04-02T11:19:17.783Z,48.10
2023-04-02T11:22:03.764Z,42.03
2023-04-02T11:24:42.885Z,53.83
2023-04-02T11:27:15.628Z,37.38
2023-04-02T11:30:07.076Z,32.42
2023-04-02T11:32:42.955Z,40.10
2023-04-02T11:35:32.001Z,32.28
2023-04-02T11:38:11.545Z,35.17
2023-04-02T11:40:46.442Z,36.85
2023-04-02T11:43:35.924Z,44.33
2023-04-02T11:46:05.699Z,34.63
2023-04-02T11:48:36.436Z,41.90
2023-04-02T11:51:23.857Z,44.33
2023-04-02T11:53:54.206Z,41.40
2023-04-02T11:56:37.242Z,39.25
2023-04-02T11:59:06.859Z,36.63
2023-04-02T12:02:06.348Z,43.33
2023-04-02T12:04:38.012Z,44.00
2023-04-02T12:07:04.981Z,38.17
2023-04-02T12:09:59.390Z,39.45
2023-04-02T12:12:32.377Z,37.03
2023-04-02T12:15:01.220Z,44.75
2023-04-02T12:17:41.227Z,49.40
2023-04-02T12:20:10.125Z,38.35
2023-04-02T12:22:47.822Z,37.05
2023-04-02T12:25:23.591Z,44.85
2023-04-02T12:28:11.854Z,28.73
2023-04-02T12:30:39.561Z,41.30
2023-04-02T12:33:30.927Z,46.25
2023-04-02T12:36:02.569Z,34.00
2023-04-02T12:38:33.629Z,34.72
2023-04-02T12:41:04.026Z,38.92
2023-04-02T12:43:34.046Z,30.52
2023-04-02T12:46:09.431Z,33.88
2023-04-02T12:48:37.180Z,31.95
2023-04-02T12:51:05.008Z,30.60
2023-04-02T12:53:35.048Z,33.97
2023-04-02T12:56:03.140Z,34.85
2023-04-02T12:58:42.903Z,30.92
2023-04-02T13:01:21.252Z,32.40
2023-04-02T13:04:06.963Z,31.05
2023-04-02T13:06:35.553Z,33.67
2023-04-02T13:09:05.749Z,40.05
2023-04-02T13:11:41.677Z,34.85
2023-04-02T13:14:18.597Z,32.15
2023-04-02T13:16:46.466Z,30.38
2023-04-02T13:19:33.609Z,41.60
2023-04-02T13:22:03.283Z,29.20
2023-04-02T13:24:32.817Z,34.35
2023-04-02T13:27:02.084Z,43.45
2023-04-02T13:29:34.287Z,32.83
2023-04-02T13:32:03.922Z,38.75
2023-04-02T13:34:31.281Z,33.97
2023-04-02T13:36:58.788Z,39.88
2023-04-02T13:39:26.299Z,29.40
2023-04-02T13:42:00.905Z,36.42
2023-04-02T13:44:30.463Z,28.80
2023-04-02T13:46:58.192Z,39.10
2023-04-02T13:49:26.609Z,42.25
2023-04-02T13:51:55.074Z,35.67
2023-04-02T13:54:35.210Z,32.58
2023-04-02T13:57:02.300Z,32.33
2023-04-02T13:59:29.512Z,35.97
2023-04-02T14:02:09.372Z,39.78
2023-04-02T14:04:43.035Z,41.55
2023-04-02T14:07:43.495Z,32.58
2023-04-02T14:10:30.284Z,33.42
2023-04-02T14:13:40.632Z,27.90
2023-04-02T14:16:31.969Z,33.05
2023-04-02T14:19:34.214Z,30.90
2023-04-02T14:22:22.060Z,37.70
2023-04-02T14:25:27.944Z,25.58
2023-04-02T14:28:11.504Z,28.70
2023-04-02T14:30:55.409Z,29.70
2023-04-02T14:36:23.683Z,35.63
2023-04-02T14:39:29.144Z,33.17
2023-04-02T14:42:06.968Z,38.53
2023-04-02T14:44:42.550Z,32.80
2023-04-02T14:47:24.771Z,34.35
2023-04-02T14:49:57.592Z,32.75
2023-04-02T14:52:27.521Z,29.33
2023-04-02T14:55:10.382Z,22.00
2023-04-02T14:57:41.352Z,28.40
2023-04-02T15:00:29.144Z,26.45
2023-04-02T15:03:19.241Z,30.75
2023-04-02T15:05:54.265Z,31.77
2023-04-02T15:08:30.964Z,33.95
2023-04-02T15:11:10.384Z,31.02
2023-04-02T15:13:48.102Z,30.17
2023-04-02T15:16:19.756Z,23.92
2023-04-02T15:18:51.600Z,32.13
2023-04-02T15:21:25.948Z,31.35
2023-04-02T15:24:12.907Z,24.00
2023-04-02T15:27:24.561Z,24.90
2023-04-02T15:30:13.165Z,32.47
2023-04-02T15:32:41.523Z,30.45
2023-04-02T15:35:23.890Z,32.15
2023-04-02T15:38:23.074Z,37.15
2023-04-02T15:41:09.701Z,26.23
2023-04-02T15:44:05.824Z,33.58
2023-04-02T15:46:50.867Z,32.45
2023-04-02T15:49:27.099Z,31.10
2023-04-02T15:52:06.013Z,33.38
2023-04-02T15:55:10.525Z,26.40
2023-04-02T15:58:08.692Z,32.28
2023-04-02T16:01:08.983Z,30.45
2023-04-02T16:03:44.833Z,30.08
2023-04-02T16:06:50.187Z,31.80
2023-04-02T16:09:27.515Z,29.40
2023-04-02T16:12:16.545Z,29.23
2023-04-02T16:14:49.198Z,30.83
2023-04-02T16:17:25.411Z,31.33
2023-04-02T16:20:05.554Z,32.58
2023-04-02T16:22:38.033Z,34.00
2023-04-02T16:25:22.625Z,34.33
2023-04-02T16:28:17.023Z,32.42
2023-04-02T16:31:05.937Z,31.05
2023-04-02T16:33:44.774Z,31.08
2023-04-02T16:36:30.781Z,37.80
2023-04-02T16:39:21.772Z,29.15
2023-04-02T16:42:17.329Z,33.70
2023-04-02T16:45:08.650Z,32.00
2023-04-02T16:47:50.713Z,26.83
2023-04-02T16:51:04.608Z,36.58
2023-04-02T16:54:01.449Z,33.42
2023-04-02T16:57:01.167Z,33.13
2023-04-02T16:59:34.116Z,26.70
2023-04-02T17:02:29.784Z,29.77
2023-04-02T17:05:05.544Z,28.30
2023-04-02T17:07:53.473Z,29.70
2023-04-02T17:10:31.618Z,31.42
2023-04-02T17:13:33.713Z,37.67
2023-04-02T17:16:07.570Z,28.30
2023-04-02T17:18:35.356Z,28.38
2023-04-02T17:21:10.381Z,30.02
2023-04-02T17:24:02.715Z,31.17
2023-04-02T17:26:33.340Z,33.00
2023-04-02T17:29:06.152Z,31.45
2023-04-02T17:31:37.620Z,30.55
2023-04-02T17:34:16.410Z,34.65
2023-04-02T17:36:55.422Z,30.52
2023-04-02T17:39:32.843Z,35.55
2023-04-02T17:42:10.644Z,29.65
2023-04-02T17:44:47.650Z,32.15
2023-04-02T17:47:22.740Z,33.28
2023-04-02T17:50:20.517Z,38.60
2023-04-02T17:53:39.010Z,35.10
2023-04-02T17:56:24.167Z,25.67
2023-04-02T17:59:03.713Z,35.67
2023-04-02T18:01:47.072Z,29.63
2023-04-02T18:04:38.431Z,33.00
2023-04-02T18:07:40.744Z,31.08
2023-04-02T18:10:26.067Z,31.67
2023-04-02T18:12:53.088Z,29.35
2023-04-02T18:15:55.801Z,32.53
2023-04-02T18:18:25.679Z,33.28
2023-04-02T18:21:19.313Z,34.95
2023-04-02T18:24:11.717Z,34.63
2023-04-02T18:27:11.101Z,36.35
2023-04-02T18:29:56.973Z,32.45
2023-04-02T18:32:51.620Z,37.15
2023-04-02T18:35:31.992Z,42.28
2023-04-02T18:38:16.283Z,40.42
2023-04-02T18:41:01.744Z,37.85
2023-04-02T18:43:43.973Z,33.97
2023-04-02T18:46:32.036Z,36.22
2023-04-02T18:49:08.296Z,29.85
2023-04-02T18:51:39.469Z,34.45
2023-04-02T18:54:09.379Z,34.90
2023-04-02T18:56:40.777Z,34.00
2023-04-02T18:59:24.311Z,40.00
2023-04-02T19:01:54.802Z,40.08
2023-04-02T19:04:33.078Z,31.20
2023-04-02T19:07:14.499Z,36.70
2023-04-02T19:09:48.709Z,41.42
2023-04-02T19:12:21.235Z,33.78
2023-04-02T19:14:51.120Z,36.92
2023-04-02T19:17:37.410Z,39.83
2023-04-02T19:20:29.224Z,37.65
2023-04-02T19:24:07.189Z,34.08
2023-04-02T19:26:49.524Z,32.20
2023-04-02T19:29:46.448Z,39.45
2023-04-02T19:32:27.737Z,28.30
2023-04-02T19:35:06.641Z,37.50
2023-04-02T19:37:42.492Z,41.55
2023-04-02T19:40:21.468Z,38.15
2023-04-02T19:42:55.268Z,39.95
2023-04-02T19:45:27.661Z,26.42
2023-04-02T19:47:56.965Z,35.80
2023-04-02T19:50:24.305Z,37.22
2023-04-02T19:52:51.440Z,34.28
2023-04-02T19:55:18.501Z,31.80
2023-04-02T19:57:45.591Z,26.13
2023-04-02T20:00:14.970Z,34.40
2023-04-02T20:02:42.144Z,44.50
2023-04-02T20:05:09.732Z,40.22
2023-04-02T20:07:36.733Z,36.30
2023-04-02T20:10:03.985Z,58.00
2023-04-02T20:12:31.243Z,51.60
2023-04-02T20:14:58.291Z,48.90
2023-04-02T20:17:25.867Z,50.20
2023-04-02T20:19:53.009Z,51.03
2023-04-02T20:22:20.094Z,48.15
2023-04-02T20:24:47.277Z,48.67
2023-04-02T20:27:14.396Z,48.42
2023-04-02T20:29:42.698Z,45.97
2023-04-02T20:32:10.630Z,48.53
2023-04-02T20:34:37.702Z,42.67
2023-04-02T20:37:04.806Z,47.17
2023-04-02T20:39:31.922Z,45.03
2023-04-02T20:42:02.658Z,45.00
2023-04-02T20:44:30.141Z,44.35
2023-04-02T20:46:57.721Z,45.83
2023-04-02T20:49:24.836Z,39.53
2023-04-02T20:51:52.994Z,41.75
2023-04-02T20:54:20.058Z,37.53
2023-04-02T20:56:47.622Z,36.67
2023-04-02T20:59:14.662Z,42.53
2023-04-02T21:01:42.555Z,37.60
2023-04-02T21:04:09.995Z,37.30
2023-04-02T21:06:39.388Z,40.38
2023-04-02T21:09:08.944Z,35.85
2023-04-02T21:11:37.440Z,41.63
2023-04-02T21:14:04.790Z,41.47
2023-04-02T21:16:32.366Z,40.80
2023-04-02T21:19:05.925Z,40.45
2023-04-02T21:21:33.625Z,29.80
2023-04-02T21:24:03.595Z,31.75
2023-04-02T21:26:34.606Z,38.03
2023-04-02T21:29:02.501Z,31.02
2023-04-02T21:31:33.438Z,37.97
2023-04-02T21:34:00.661Z,27.20
2023-04-02T21:36:31.058Z,35.58
2023-04-02T21:39:04.529Z,45.33
2023-04-02T21:41:33.697Z,38.88
2023-04-02T21:44:03.296Z,41.90
2023-04-02T21:46:33.861Z,28.90
2023-04-02T21:49:01.571Z,35.75
2023-04-02T21:51:31.418Z,36.55
2023-04-02T21:53:59.490Z,34.28
2023-04-02T21:56:28.928Z,40.85
2023-04-02T21:59:02.171Z,33.92
2023-04-02T22:01:35.298Z,43.33
2023-04-02T22:04:04.794Z,42.25
2023-04-02T22:06:36.099Z,47.20
2023-04-02T22:09:07.479Z,45.85
2023-04-02T22:11:41.764Z,49.97
2023-04-02T22:14:09.051Z,44.15
2023-04-02T22:16:36.696Z,45.75
2023-04-02T22:19:07.237Z,36.03
2023-04-02T22:21:34.841Z,41.05
2023-04-02T22:24:03.658Z,34.83
2023-04-02T22:26:32.280Z,40.40
2023-04-02T22:28:59.802Z,47.05
2023-04-02T22:31:30.661Z,34.13
2023-04-02T22:33:58.638Z,33.53
2023-04-02T22:36:27.497Z,32.30
2023-04-02T22:38:54.948Z,26.83
2023-04-02T22:41:25.907Z,29.40
2023-04-02T22:43:53.196Z,39.45
2023-04-02T22:46:21.022Z,32.95
2023-04-02T22:48:49.123Z,32.78
2023-04-02T22:51:19.213Z,28.42
2023-04-02T22:53:46.963Z,31.33
2023-04-02T22:56:17.288Z,28.23
2023-04-02T22:58:45.103Z,28.60
2023-04-02T23:01:16.527Z,32.42
2023-04-02T23:03:44.055Z,28.30
2023-04-02T23:06:14.747Z,25.95
2023-04-02T23:08:42.468Z,21.13
2023-04-02T23:11:13.134Z,23.95
2023-04-02T23:13:42.166Z,28.35
2023-04-02T23:16:12.847Z,31.52
2023-04-02T23:18:41.266Z,29.50
2023-04-02T23:21:08.894Z,24.58
2023-04-02T23:23:37.342Z,27.35
2023-04-02T23:26:17.183Z,22.70
2023-04-02T23:28:44.945Z,21.83
2023-04-02T23:31:14.733Z,21.52
2023-04-02T23:33:41.911Z,20.02
2023-04-02T23:36:28.604Z,22.25
2023-04-02T23:38:59.876Z,27.15
2023-04-02T23:41:28.640Z,27.63
2023-04-02T23:43:56.950Z,26.23
2023-04-02T23:46:25.217Z,23.77
2023-04-02T23:48:53.173Z,27.38
2023-04-02T23:51:21.029Z,28.70
2023-04-02T23:53:49.065Z,26.92
2023-04-02T23:56:16.440Z,28.02
2023-04-02T23:58:43.808Z,27.52
